createdAt,value
2022-10-16T00:01:29.109Z,34.30
2022-10-16T00:03:58.046Z,34.65
2022-10-16T00:06:26.436Z,34.63
2022-10-16T00:08:54.418Z,35.05
2022-10-16T00:11:28.348Z,34.90
2022-10-16T00:13:59.170Z,34.70
2022-10-16T00:16:27.739Z,33.97
2022-10-16T00:18:55.531Z,35.50
2022-10-16T00:21:25.542Z,33.58
2022-10-16T00:23:55.162Z,35.70
2022-10-16T00:26:23.009Z,33.83
2022-10-16T00:28:51.846Z,34.55
2022-10-16T00:31:22.050Z,33.83
2022-10-16T00:33:50.213Z,32.80
2022-10-16T00:36:21.317Z,32.90
2022-10-16T00:38:51.033Z,33.65
2022-10-16T00:41:18.747Z,34.47
2022-10-16T00:43:58.184Z,32.10
2022-10-16T00:46:28.646Z,32.60
2022-10-16T00:49:05.879Z,34.00
2022-10-16T00:51:38.958Z,35.13
2022-10-16T00:54:12.722Z,32.83
2022-10-16T00:56:40.831Z,33.78
2022-10-16T00:59:19.078Z,34.15
2022-10-16T01:01:46.479Z,32.63
2022-10-16T01:04:14.175Z,33.22
2022-10-16T01:07:02.941Z,33.42
2022-10-16T01:10:00.153Z,32.78
2022-10-16T01:13:04.229Z,33.40
2022-10-16T01:15:45.482Z,33.97
2022-10-16T01:18:17.980Z,33.25
2022-10-16T01:21:02.172Z,35.60
2022-10-16T01:23:50.030Z,34.80
2022-10-16T01:26:26.497Z,34.65
2022-10-16T01:29:02.778Z,31.80
2022-10-16T01:31:34.743Z,32.38
2022-10-16T01:36:50.235Z,32.70
2022-10-16T01:39:23.910Z,32.25
2022-10-16T01:41:59.997Z,32.22
2022-10-16T01:44:31.916Z,34.78
2022-10-16T01:49:34.840Z,34.30
2022-10-16T01:52:07.362Z,33.88
2022-10-16T01:54:37.869Z,34.45
2022-10-16T01:57:08.171Z,33.10
2022-10-16T01:59:44.567Z,35.88
2022-10-16T02:02:13.589Z,34.17
2022-10-16T02:04:48.550Z,34.33
2022-10-16T02:07:16.693Z,34.92
2022-10-16T02:09:44.342Z,34.28
2022-10-16T02:12:24.962Z,33.97
2022-10-16T02:14:52.713Z,34.00
2022-10-16T02:17:20.302Z,34.20
2022-10-16T02:19:50.229Z,33.67
2022-10-16T02:22:29.009Z,33.05
2022-10-16T02:25:09.323Z,33.63
2022-10-16T02:27:57.309Z,34.38
2022-10-16T02:30:42.558Z,34.80
2022-10-16T02:33:14.603Z,33.22
2022-10-16T02:35:44.443Z,33.47
2022-10-16T02:38:12.878Z,33.83
2022-10-16T02:40:40.979Z,34.22
2022-10-16T02:43:08.844Z,33.40
2022-10-16T02:45:36.381Z,33.47
2022-10-16T02:48:03.972Z,34.22
2022-10-16T02:50:31.221Z,36.53
2022-10-16T02:52:58.482Z,31.98
2022-10-16T02:55:26.098Z,34.10
2022-10-16T02:57:53.492Z,34.55
2022-10-16T03:00:21.255Z,34.00
2022-10-16T03:02:48.816Z,35.83
2022-10-16T03:05:16.434Z,34.33
2022-10-16T03:07:43.938Z,35.42
2022-10-16T03:10:11.616Z,33.53
2022-10-16T03:12:39.033Z,33.17
2022-10-16T03:15:07.815Z,34.50
2022-10-16T03:17:35.727Z,31.85
2022-10-16T03:20:04.122Z,33.70
2022-10-16T03:22:31.955Z,33.35
2022-10-16T03:24:59.312Z,33.58
2022-10-16T03:27:27.001Z,33.83
2022-10-16T03:29:54.584Z,35.17
2022-10-16T03:32:22.637Z,33.97
2022-10-16T03:34:49.976Z,33.78
2022-10-16T03:37:17.428Z,32.47
2022-10-16T03:39:44.755Z,33.58
2022-10-16T03:42:12.135Z,33.65
2022-10-16T03:44:39.464Z,36.08
2022-10-16T03:47:06.839Z,35.53
2022-10-16T03:49:34.192Z,32.92
2022-10-16T03:52:01.534Z,33.83
2022-10-16T03:54:28.971Z,33.75
2022-10-16T03:56:56.318Z,35.15
2022-10-16T03:59:23.835Z,34.67
2022-10-16T04:01:51.137Z,33.50
2022-10-16T04:04:18.977Z,33.47
2022-10-16T04:06:46.292Z,34.88
2022-10-16T04:09:13.708Z,32.53
2022-10-16T04:11:41.116Z,33.58
2022-10-16T04:14:08.486Z,34.65
2022-10-16T04:16:35.930Z,34.63
2022-10-16T04:19:04.081Z,34.67
2022-10-16T04:21:31.431Z,33.25
2022-10-16T04:23:58.759Z,34.58
2022-10-16T04:26:26.055Z,36.10
2022-10-16T04:28:53.426Z,34.72
2022-10-16T04:31:21.194Z,34.10
2022-10-16T04:33:48.681Z,35.22
2022-10-16T04:36:15.977Z,35.83
2022-10-16T04:38:43.406Z,34.13
2022-10-16T04:41:10.785Z,35.25
2022-10-16T04:43:38.087Z,33.70
2022-10-16T04:46:06.057Z,33.97
2022-10-16T04:48:33.752Z,35.25
2022-10-16T04:51:01.396Z,35.13
2022-10-16T04:53:28.710Z,36.13
2022-10-16T04:55:57.071Z,34.47
2022-10-16T04:58:24.650Z,36.08
2022-10-16T05:00:51.917Z,34.40
2022-10-16T05:03:19.428Z,36.10
2022-10-16T05:05:47.479Z,35.67
2022-10-16T05:08:16.303Z,36.72
2022-10-16T05:10:45.369Z,36.40
2022-10-16T05:13:12.841Z,35.88
2022-10-16T05:15:40.257Z,36.05
2022-10-16T05:18:07.615Z,40.13
2022-10-16T05:20:35.429Z,36.90
2022-10-16T05:23:02.808Z,38.63
2022-10-16T05:25:30.215Z,36.90
2022-10-16T05:27:57.577Z,38.33
2022-10-16T05:30:25.022Z,38.22
2022-10-16T05:32:52.639Z,36.45
2022-10-16T05:35:20.457Z,38.63
2022-10-16T05:37:48.637Z,36.53
2022-10-16T05:40:17.062Z,36.97
2022-10-16T05:42:44.332Z,34.85
2022-10-16T05:45:13.270Z,36.92
2022-10-16T05:47:41.064Z,37.28
2022-10-16T05:50:08.742Z,37.40
2022-10-16T05:52:36.445Z,38.45
2022-10-16T05:55:04.477Z,38.22
2022-10-16T05:57:32.204Z,37.60
2022-10-16T05:59:59.545Z,36.63
2022-10-16T06:02:26.860Z,38.58
2022-10-16T06:04:54.869Z,36.80
2022-10-16T06:07:23.094Z,37.70
2022-10-16T06:09:51.364Z,37.95
2022-10-16T06:12:18.679Z,38.85
2022-10-16T06:14:49.836Z,38.55
2022-10-16T06:17:17.347Z,38.22
2022-10-16T06:19:44.826Z,37.00
2022-10-16T06:22:12.185Z,37.67
2022-10-16T06:24:39.518Z,38.45
2022-10-16T06:27:06.807Z,35.22
2022-10-16T06:29:34.273Z,37.88
2022-10-16T06:32:01.671Z,36.47
2022-10-16T06:34:29.074Z,37.15
2022-10-16T06:36:56.580Z,34.55
2022-10-16T06:39:23.917Z,35.80
2022-10-16T06:41:51.469Z,35.25
2022-10-16T06:44:18.877Z,35.67
2022-10-16T06:46:46.189Z,34.20
2022-10-16T06:49:13.610Z,35.63
2022-10-16T06:51:43.347Z,36.40
2022-10-16T06:54:11.143Z,36.53
2022-10-16T06:56:38.861Z,37.55
2022-10-16T06:59:06.356Z,35.50
2022-10-16T07:01:34.330Z,37.70
2022-10-16T07:04:03.194Z,34.40
2022-10-16T07:06:33.553Z,36.22
2022-10-16T07:09:05.183Z,36.85
2022-10-16T07:11:33.218Z,37.38
2022-10-16T07:14:00.817Z,37.70
2022-10-16T07:16:30.729Z,36.08
2022-10-16T07:19:01.082Z,37.22
2022-10-16T07:21:31.218Z,36.42
2022-10-16T07:24:02.106Z,37.42
2022-10-16T07:26:32.067Z,36.65
2022-10-16T07:28:59.667Z,37.75
2022-10-16T07:31:27.332Z,36.00
2022-10-16T07:33:54.944Z,38.15
2022-10-16T07:36:22.867Z,38.10
2022-10-16T07:38:52.814Z,38.35
2022-10-16T07:41:22.874Z,38.45
2022-10-16T07:43:52.433Z,36.75
2022-10-16T07:46:21.684Z,38.65
2022-10-16T07:48:49.693Z,39.35
2022-10-16T07:51:19.407Z,38.35
2022-10-16T07:53:48.060Z,39.22
2022-10-16T07:56:16.288Z,40.72
2022-10-16T07:58:43.685Z,42.20
2022-10-16T08:01:14.454Z,39.97
2022-10-16T08:03:46.929Z,39.30
2022-10-16T08:06:14.677Z,41.00
2022-10-16T08:08:42.314Z,37.03
2022-10-16T08:11:10.050Z,40.33
2022-10-16T08:13:37.873Z,38.70
2022-10-16T08:16:08.966Z,40.40
2022-10-16T08:18:37.715Z,40.03
2022-10-16T08:21:06.695Z,40.47
2022-10-16T08:23:34.774Z,40.78
2022-10-16T08:26:09.236Z,41.20
2022-10-16T08:28:37.109Z,40.88
2022-10-16T08:31:12.855Z,40.22
2022-10-16T08:33:42.989Z,40.42
2022-10-16T08:36:11.942Z,39.90
2022-10-16T08:38:40.070Z,37.80
2022-10-16T08:41:28.932Z,38.58
2022-10-16T08:44:02.078Z,40.08
2022-10-16T08:46:38.324Z,39.88
2022-10-16T08:49:12.396Z,37.95
2022-10-16T08:51:43.343Z,38.60
2022-10-16T08:54:29.514Z,40.25
2022-10-16T08:56:57.870Z,39.42
2022-10-16T08:59:25.249Z,38.70
2022-10-16T09:01:53.527Z,37.95
2022-10-16T09:04:45.220Z,38.83
2022-10-16T09:07:31.365Z,40.45
2022-10-16T09:10:06.731Z,37.53
2022-10-16T09:12:52.730Z,38.17
2022-10-16T09:15:28.987Z,38.80
2022-10-16T09:18:08.377Z,39.10
2022-10-16T09:20:52.835Z,36.08
2022-10-16T09:23:26.743Z,35.85
2022-10-16T09:25:55.319Z,36.08
2022-10-16T09:28:22.821Z,38.97
2022-10-16T09:30:50.867Z,35.28
2022-10-16T09:33:21.449Z,38.05
2022-10-16T09:35:52.684Z,37.40
2022-10-16T09:38:30.339Z,37.33
2022-10-16T09:41:03.168Z,37.88
2022-10-16T09:43:54.599Z,36.70
2022-10-16T09:46:33.538Z,40.50
2022-10-16T09:49:21.756Z,36.47
2022-10-16T09:51:49.237Z,37.13
2022-10-16T09:54:19.337Z,38.45
2022-10-16T09:56:50.233Z,37.75
2022-10-16T09:59:19.980Z,36.50
2022-10-16T10:01:52.387Z,36.33
2022-10-16T10:04:24.886Z,33.53
2022-10-16T10:06:55.365Z,31.52
2022-10-16T10:09:28.363Z,32.13
2022-10-16T10:12:04.489Z,33.47
2022-10-16T10:14:34.557Z,32.10
2022-10-16T10:17:07.748Z,32.03
2022-10-16T10:19:43.487Z,32.33
2022-10-16T10:22:29.821Z,31.92
2022-10-16T10:24:58.054Z,30.50
2022-10-16T10:27:44.212Z,32.33
2022-10-16T10:30:42.190Z,29.65
2022-10-16T10:33:21.333Z,28.33
2022-10-16T10:36:04.076Z,29.42
2022-10-16T10:39:01.787Z,29.55
2022-10-16T10:41:55.613Z,29.40
2022-10-16T10:44:56.528Z,29.52
2022-10-16T10:47:29.657Z,28.65
2022-10-16T10:50:07.914Z,30.77
2022-10-16T10:52:42.999Z,29.13
2022-10-16T10:55:26.696Z,28.38
2022-10-16T10:58:19.460Z,30.02
2022-10-16T11:01:09.422Z,27.05
2022-10-16T11:04:03.041Z,27.95
2022-10-16T11:07:13.081Z,27.88
2022-10-16T11:09:50.894Z,28.42
2022-10-16T11:12:30.074Z,27.95
2022-10-16T11:15:03.158Z,29.80
2022-10-16T11:17:35.283Z,31.13
2022-10-16T11:20:24.100Z,31.90
2022-10-16T11:23:17.177Z,33.75
2022-10-16T11:25:46.249Z,32.05
2022-10-16T11:28:16.417Z,32.75
2022-10-16T11:30:53.326Z,31.42
2022-10-16T11:33:42.510Z,31.30
2022-10-16T11:36:19.113Z,31.77
2022-10-16T11:38:49.489Z,34.83
2022-10-16T11:41:27.871Z,33.85
2022-10-16T11:44:04.259Z,31.92
2022-10-16T11:46:47.807Z,33.58
2022-10-16T11:49:27.470Z,32.40
2022-10-16T11:52:25.694Z,31.92
2022-10-16T11:54:56.993Z,34.17
2022-10-16T11:57:48.111Z,31.83
2022-10-16T12:00:29.933Z,32.58
2022-10-16T12:03:23.339Z,33.45
2022-10-16T12:06:14.822Z,34.00
2022-10-16T12:08:45.023Z,33.78
2022-10-16T12:11:28.726Z,33.53
2022-10-16T12:14:14.133Z,32.33
2022-10-16T12:17:22.829Z,31.13
2022-10-16T12:20:20.786Z,35.83
2022-10-16T12:23:23.095Z,31.55
2022-10-16T12:28:27.339Z,33.97
2022-10-16T12:31:17.672Z,33.17
2022-10-16T12:33:56.034Z,30.90
2022-10-16T12:36:35.332Z,30.02
2022-10-16T12:39:03.400Z,33.88
2022-10-16T12:41:31.804Z,27.85
2022-10-16T12:44:02.427Z,32.58
2022-10-16T12:46:29.711Z,33.10
2022-10-16T12:49:20.532Z,31.45
2022-10-16T12:51:47.867Z,32.03
2022-10-16T12:54:21.354Z,29.17
2022-10-16T12:57:13.156Z,29.67
2022-10-16T13:00:05.386Z,33.88
2022-10-16T13:02:50.706Z,30.95
2022-10-16T13:08:26.141Z,30.83
2022-10-16T13:11:07.938Z,29.92
2022-10-16T13:13:45.985Z,28.55
2022-10-16T13:16:22.306Z,28.70
2022-10-16T13:19:06.393Z,29.13
2022-10-16T13:21:52.698Z,30.00
2022-10-16T13:24:41.180Z,29.15
2022-10-16T13:27:36.213Z,29.25
2022-10-16T13:30:17.824Z,26.90
2022-10-16T13:32:50.359Z,26.95
2022-10-16T13:35:27.360Z,27.13
2022-10-16T13:38:06.675Z,28.65
2022-10-16T13:40:35.674Z,30.30
2022-10-16T13:43:25.952Z,29.30
2022-10-16T13:48:25.130Z,28.90
2022-10-16T13:51:01.490Z,28.88
2022-10-16T13:53:32.357Z,29.63
2022-10-16T13:56:01.303Z,30.48
2022-10-16T13:58:28.661Z,26.38
2022-10-16T14:01:02.015Z,28.75
2022-10-16T14:03:30.526Z,26.98
2022-10-16T14:06:07.605Z,27.63
2022-10-16T14:08:35.091Z,30.15
2022-10-16T14:11:03.055Z,25.55
2022-10-16T14:13:44.862Z,27.58
2022-10-16T14:16:21.926Z,25.42
2022-10-16T14:19:02.174Z,27.75
2022-10-16T14:21:30.265Z,27.98
2022-10-16T14:23:57.878Z,26.45
2022-10-16T14:26:28.001Z,26.52
2022-10-16T14:29:18.298Z,27.30
2022-10-16T14:31:55.885Z,26.08
2022-10-16T14:34:28.422Z,28.63
2022-10-16T14:36:57.566Z,26.98
2022-10-16T14:39:26.641Z,25.58
2022-10-16T14:41:57.901Z,26.00
2022-10-16T14:44:32.260Z,21.00
2022-10-16T14:47:08.189Z,23.63
2022-10-16T14:49:35.967Z,23.67
2022-10-16T14:52:06.207Z,24.90
2022-10-16T14:54:33.574Z,23.67
2022-10-16T14:57:00.874Z,25.27
2022-10-16T14:59:38.604Z,24.17
2022-10-16T15:02:32.156Z,25.30
2022-10-16T15:05:12.776Z,24.17
2022-10-16T15:07:40.060Z,23.17
2022-10-16T15:10:07.535Z,23.38
2022-10-16T15:12:34.948Z,22.65
2022-10-16T15:15:02.570Z,23.33
2022-10-16T15:17:30.026Z,24.38
2022-10-16T15:19:59.380Z,21.73
2022-10-16T15:22:26.750Z,23.20
2022-10-16T15:24:54.133Z,25.35
2022-10-16T15:27:21.387Z,23.83
2022-10-16T15:29:48.696Z,23.05
2022-10-16T15:32:16.103Z,25.63
2022-10-16T15:34:43.580Z,24.67
2022-10-16T15:37:12.878Z,23.02
2022-10-16T15:39:41.359Z,24.23
2022-10-16T15:42:08.950Z,25.25
2022-10-16T15:44:36.332Z,25.40
2022-10-16T15:47:03.674Z,24.15
2022-10-16T15:49:30.942Z,21.98
2022-10-16T15:51:58.622Z,23.90
2022-10-16T15:54:25.937Z,23.02
2022-10-16T15:56:53.246Z,20.92
2022-10-16T15:59:21.819Z,20.30
2022-10-16T16:01:49.264Z,23.58
2022-10-16T16:04:42.174Z,25.52
2022-10-16T16:07:08.257Z,24.75
2022-10-16T16:09:35.762Z,23.45
2022-10-16T16:12:03.461Z,24.73
2022-10-16T16:14:30.918Z,23.42
2022-10-16T16:16:59.016Z,23.38
2022-10-16T16:19:26.369Z,25.17
2022-10-16T16:21:53.650Z,27.13
2022-10-16T16:24:21.180Z,25.75
2022-10-16T16:26:48.524Z,26.23
2022-10-16T16:29:17.004Z,26.20
2022-10-16T16:31:44.425Z,25.00
2022-10-16T16:34:11.825Z,23.10
2022-10-16T16:36:40.952Z,24.98
2022-10-16T16:39:08.834Z,24.45
2022-10-16T16:41:36.183Z,23.13
2022-10-16T16:44:06.302Z,21.60
2022-10-16T16:46:34.694Z,21.52
2022-10-16T16:49:04.948Z,21.85
2022-10-16T16:51:35.692Z,22.08
2022-10-16T16:54:07.936Z,22.50
2022-10-16T16:56:35.925Z,21.08
2022-10-16T16:59:03.841Z,20.40
2022-10-16T17:01:32.433Z,20.92
2022-10-16T17:04:00.689Z,21.90
2022-10-16T17:06:32.712Z,20.27
2022-10-16T17:09:03.448Z,20.58
2022-10-16T17:11:31.018Z,20.52
2022-10-16T17:14:00.159Z,21.77
2022-10-16T17:16:31.282Z,20.23
2022-10-16T17:19:04.514Z,23.00
2022-10-16T17:21:33.077Z,21.80
2022-10-16T17:24:01.544Z,20.75
2022-10-16T17:26:29.269Z,20.38
2022-10-16T17:28:59.126Z,21.65
2022-10-16T17:31:29.604Z,21.75
2022-10-16T17:34:02.248Z,22.17
2022-10-16T17:36:33.083Z,21.75
2022-10-16T17:39:04.715Z,24.63
2022-10-16T17:41:33.902Z,25.48
2022-10-16T17:44:01.836Z,26.88
2022-10-16T17:46:29.599Z,28.55
2022-10-16T17:48:57.143Z,27.60
2022-10-16T17:51:29.591Z,31.70
2022-10-16T17:54:00.224Z,29.52
2022-10-16T17:56:28.926Z,31.58
2022-10-16T17:59:00.394Z,30.38
2022-10-16T18:01:30.218Z,30.55
2022-10-16T18:04:00.456Z,30.50
2022-10-16T18:06:28.464Z,31.30
2022-10-16T18:08:57.940Z,30.77
2022-10-16T18:11:26.221Z,33.85
2022-10-16T18:13:54.591Z,30.27
2022-10-16T18:16:22.862Z,30.45
2022-10-16T18:18:50.497Z,31.67
2022-10-16T18:21:20.302Z,31.13
2022-10-16T18:23:51.000Z,31.92
2022-10-16T18:28:47.985Z,30.58
2022-10-16T18:31:16.988Z,31.77
2022-10-16T18:33:50.206Z,30.90
2022-10-16T18:36:23.288Z,31.85
2022-10-16T18:38:51.083Z,31.67
2022-10-16T18:41:19.313Z,31.48
2022-10-16T18:43:47.224Z,33.70
2022-10-16T18:46:17.593Z,31.30
2022-10-16T18:48:46.586Z,32.20
2022-10-16T18:51:26.402Z,31.58
2022-10-16T18:53:56.923Z,31.70
2022-10-16T18:56:25.438Z,32.42
2022-10-16T18:58:59.243Z,31.25
2022-10-16T19:01:29.718Z,29.30
2022-10-16T19:03:59.682Z,32.17
2022-10-16T19:06:28.693Z,31.25
2022-10-16T19:08:57.231Z,32.45
2022-10-16T19:11:26.073Z,32.53
2022-10-16T19:13:56.845Z,31.17
2022-10-16T19:16:31.157Z,31.38
2022-10-16T19:19:00.678Z,31.35
2022-10-16T19:21:29.861Z,31.38
2022-10-16T19:23:59.876Z,31.63
2022-10-16T19:26:28.797Z,31.15
2022-10-16T19:28:59.164Z,31.42
2022-10-16T19:31:28.440Z,29.83
2022-10-16T19:33:58.746Z,31.13
2022-10-16T19:36:29.689Z,31.20
2022-10-16T19:39:02.905Z,32.20
2022-10-16T19:41:31.246Z,31.95
2022-10-16T19:44:03.651Z,32.00
2022-10-16T19:46:31.906Z,33.90
2022-10-16T19:49:02.050Z,31.00
2022-10-16T19:51:30.963Z,32.13
2022-10-16T19:54:00.475Z,31.75
2022-10-16T19:56:30.690Z,31.05
2022-10-16T19:58:59.761Z,31.85
2022-10-16T20:01:30.116Z,30.05
2022-10-16T20:03:58.394Z,30.27
2022-10-16T20:06:25.917Z,30.83
2022-10-16T20:08:54.909Z,30.75
2022-10-16T20:11:28.067Z,28.60
2022-10-16T20:13:55.913Z,29.77
2022-10-16T20:16:23.514Z,28.20
2022-10-16T20:18:52.985Z,27.58
2022-10-16T20:21:26.991Z,27.38
2022-10-16T20:23:54.605Z,26.63
2022-10-16T20:26:24.390Z,28.33
2022-10-16T20:28:52.610Z,28.15
2022-10-16T20:31:26.627Z,27.58
2022-10-16T20:33:55.281Z,26.05
2022-10-16T20:36:26.068Z,26.58
2022-10-16T20:38:53.551Z,28.20
2022-10-16T20:41:21.136Z,29.08
2022-10-16T20:43:49.983Z,30.02
2022-10-16T20:46:20.837Z,27.50
2022-10-16T20:48:48.416Z,29.20
2022-10-16T20:51:29.118Z,29.08
2022-10-16T20:53:58.702Z,29.42
2022-10-16T20:56:27.966Z,29.60
2022-10-16T20:58:55.322Z,27.88
2022-10-16T21:01:25.855Z,28.92
2022-10-16T21:03:56.634Z,30.83
2022-10-16T21:06:24.646Z,27.65
2022-10-16T21:08:52.288Z,27.83
2022-10-16T21:11:21.196Z,27.30
2022-10-16T21:13:48.946Z,29.08
2022-10-16T21:16:17.649Z,28.67
2022-10-16T21:18:45.115Z,29.80
2022-10-16T21:21:26.921Z,28.00
2022-10-16T21:23:55.765Z,28.23
2022-10-16T21:26:26.325Z,29.60
2022-10-16T21:28:58.571Z,28.55
2022-10-16T21:31:26.325Z,29.45
2022-10-16T21:33:55.378Z,27.80
2022-10-16T21:36:25.683Z,29.08
2022-10-16T21:38:53.562Z,31.10
2022-10-16T21:41:27.430Z,28.60
2022-10-16T21:43:56.384Z,31.42
2022-10-16T21:46:26.884Z,30.77
2022-10-16T21:48:58.767Z,29.35
2022-10-16T21:53:54.848Z,30.23
2022-10-16T21:56:23.255Z,30.77
2022-10-16T21:58:50.792Z,31.85
2022-10-16T22:01:20.621Z,30.15
2022-10-16T22:03:48.656Z,31.30
2022-10-16T22:06:18.267Z,30.75
2022-10-16T22:08:47.054Z,31.83
2022-10-16T22:11:15.736Z,31.17
2022-10-16T22:13:43.442Z,30.38
2022-10-16T22:16:11.354Z,30.23
2022-10-16T22:18:40.039Z,30.55
2022-10-16T22:21:09.008Z,31.13
2022-10-16T22:23:36.815Z,30.70
2022-10-16T22:26:09.514Z,32.35
2022-10-16T22:28:38.263Z,32.53
2022-10-16T22:31:08.486Z,30.73
2022-10-16T22:33:36.005Z,31.92
2022-10-16T22:36:05.754Z,30.15
2022-10-16T22:38:34.521Z,31.60
2022-10-16T22:41:13.144Z,32.92
2022-10-16T22:43:43.945Z,33.38
2022-10-16T22:46:14.114Z,32.50
2022-10-16T22:48:41.768Z,34.08
2022-10-16T22:51:09.661Z,31.17
2022-10-16T22:53:37.088Z,32.72
2022-10-16T22:56:04.629Z,32.75
2022-10-16T22:58:32.146Z,31.58
2022-10-16T23:00:59.706Z,33.42
2022-10-16T23:03:27.235Z,32.65
2022-10-16T23:05:54.598Z,33.55
2022-10-16T23:08:21.957Z,33.33
2022-10-16T23:10:49.786Z,30.90
2022-10-16T23:13:17.118Z,30.92
2022-10-16T23:15:45.335Z,34.70
2022-10-16T23:18:12.709Z,31.85
2022-10-16T23:20:40.781Z,32.38
2022-10-16T23:23:08.790Z,32.40
2022-10-16T23:25:37.165Z,32.22
2022-10-16T23:28:04.844Z,32.60
2022-10-16T23:30:32.279Z,31.60
2022-10-16T23:32:59.610Z,33.05
2022-10-16T23:35:26.984Z,33.03
2022-10-16T23:37:54.443Z,31.77
2022-10-16T23:40:21.795Z,31.80
2022-10-16T23:42:49.122Z,32.47
2022-10-16T23:45:16.495Z,32.42
2022-10-16T23:47:43.908Z,32.10
2022-10-16T23:50:11.286Z,32.55
2022-10-16T23:52:38.588Z,32.67
2022-10-16T23:55:06.318Z,32.95
2022-10-16T23:57:33.696Z,32.17
